sensor_id;sensor_type;location;lat;lon;timestamp;P1;durP1;ratioP1;P2;durP2;ratioP2
75823;SDS011;64457;51.976;9.834;2024-02-14T00:01:15;3.50;;;2.40;;
75823;SDS011;64457;51.976;9.834;2024-02-14T00:03:43;8.10;;;2.87;;
75823;SDS011;64457;51.976;9.834;2024-02-14T00:06:12;4.50;;;2.50;;
75823;SDS011;64457;51.976;9.834;2024-02-14T00:08:39;4.43;;;2.20;;
75823;SDS011;64457;51.976;9.834;2024-02-14T00:11:07;3.57;;;2.30;;
75823;SDS011;64457;51.976;9.834;2024-02-14T00:13:34;6.97;;;2.63;;
75823;SDS011;64457;51.976;9.834;2024-02-14T00:16:02;3.17;;;2.27;;
75823;SDS011;64457;51.976;9.834;2024-02-14T00:18:31;7.73;;;2.57;;
75823;SDS011;64457;51.976;9.834;2024-02-14T00:20:59;6.93;;;2.17;;
75823;SDS011;64457;51.976;9.834;2024-02-14T00:23:28;2.77;;;2.50;;
75823;SDS011;64457;51.976;9.834;2024-02-14T00:25:55;5.30;;;2.57;;
75823;SDS011;64457;51.976;9.834;2024-02-14T00:28:22;4.93;;;2.87;;
75823;SDS011;64457;51.976;9.834;2024-02-14T00:30:52;3.90;;;2.00;;
75823;SDS011;64457;51.976;9.834;2024-02-14T00:33:19;11.67;;;2.67;;
75823;SDS011;64457;51.976;9.834;2024-02-14T00:35:47;5.80;;;2.23;;
75823;SDS011;64457;51.976;9.834;2024-02-14T00:38:15;3.20;;;2.90;;
75823;SDS011;64457;51.976;9.834;2024-02-14T00:40:43;2.43;;;2.23;;
75823;SDS011;64457;51.976;9.834;2024-02-14T00:43:11;3.13;;;2.60;;
75823;SDS011;64457;51.976;9.834;2024-02-14T00:45:39;3.23;;;2.03;;
75823;SDS011;64457;51.976;9.834;2024-02-14T00:48:06;2.77;;;2.50;;
75823;SDS011;64457;51.976;9.834;2024-02-14T00:50:34;4.73;;;2.70;;
75823;SDS011;64457;51.976;9.834;2024-02-14T00:53:03;2.97;;;2.40;;
75823;SDS011;64457;51.976;9.834;2024-02-14T00:55:30;3.53;;;2.50;;
75823;SDS011;64457;51.976;9.834;2024-02-14T00:57:59;3.30;;;2.47;;
75823;SDS011;64457;51.976;9.834;2024-02-14T01:00:27;3.47;;;2.40;;
75823;SDS011;64457;51.976;9.834;2024-02-14T01:02:57;3.77;;;2.40;;
75823;SDS011;64457;51.976;9.834;2024-02-14T01:05:24;2.80;;;2.60;;
75823;SDS011;64457;51.976;9.834;2024-02-14T01:07:52;4.00;;;2.40;;
75823;SDS011;64457;51.976;9.834;2024-02-14T01:10:20;5.30;;;2.63;;
75823;SDS011;64457;51.976;9.834;2024-02-14T01:12:47;4.87;;;2.93;;
75823;SDS011;64457;51.976;9.834;2024-02-14T01:15:16;5.53;;;2.87;;
75823;SDS011;64457;51.976;9.834;2024-02-14T01:17:45;3.60;;;3.00;;
75823;SDS011;64457;51.976;9.834;2024-02-14T01:20:13;5.20;;;3.00;;
75823;SDS011;64457;51.976;9.834;2024-02-14T01:22:40;5.53;;;2.50;;
75823;SDS011;64457;51.976;9.834;2024-02-14T01:25:08;8.40;;;2.93;;
75823;SDS011;64457;51.976;9.834;2024-02-14T01:27:36;5.90;;;2.70;;
75823;SDS011;64457;51.976;9.834;2024-02-14T01:30:03;3.77;;;3.10;;
75823;SDS011;64457;51.976;9.834;2024-02-14T01:32:33;4.67;;;2.87;;
75823;SDS011;64457;51.976;9.834;2024-02-14T01:35:01;3.90;;;2.80;;
75823;SDS011;64457;51.976;9.834;2024-02-14T01:37:29;3.93;;;2.93;;
75823;SDS011;64457;51.976;9.834;2024-02-14T01:39:56;4.83;;;2.80;;
75823;SDS011;64457;51.976;9.834;2024-02-14T01:42:24;3.93;;;3.00;;
75823;SDS011;64457;51.976;9.834;2024-02-14T01:44:53;4.00;;;2.90;;
75823;SDS011;64457;51.976;9.834;2024-02-14T01:47:20;3.53;;;2.63;;
75823;SDS011;64457;51.976;9.834;2024-02-14T01:49:49;4.30;;;2.63;;
75823;SDS011;64457;51.976;9.834;2024-02-14T01:52:17;4.97;;;2.73;;
75823;SDS011;64457;51.976;9.834;2024-02-14T01:54:45;6.13;;;2.83;;
75823;SDS011;64457;51.976;9.834;2024-02-14T01:57:13;3.60;;;3.10;;
75823;SDS011;64457;51.976;9.834;2024-02-14T01:59:41;9.07;;;3.20;;
75823;SDS011;64457;51.976;9.834;2024-02-14T02:02:08;5.67;;;2.87;;
75823;SDS011;64457;51.976;9.834;2024-02-14T02:04:37;4.23;;;3.07;;
75823;SDS011;64457;51.976;9.834;2024-02-14T02:07:05;10.07;;;3.40;;
75823;SDS011;64457;51.976;9.834;2024-02-14T02:09:33;4.10;;;3.00;;
75823;SDS011;64457;51.976;9.834;2024-02-14T02:12:00;5.97;;;2.73;;
75823;SDS011;64457;51.976;9.834;2024-02-14T02:14:31;6.83;;;3.10;;
75823;SDS011;64457;51.976;9.834;2024-02-14T02:16:59;7.60;;;3.30;;
75823;SDS011;64457;51.976;9.834;2024-02-14T02:19:27;3.80;;;2.80;;
75823;SDS011;64457;51.976;9.834;2024-02-14T02:21:54;12.23;;;3.07;;
75823;SDS011;64457;51.976;9.834;2024-02-14T02:24:23;5.60;;;2.90;;
75823;SDS011;64457;51.976;9.834;2024-02-14T02:26:50;5.93;;;3.40;;
75823;SDS011;64457;51.976;9.834;2024-02-14T02:29:17;4.90;;;3.40;;
75823;SDS011;64457;51.976;9.834;2024-02-14T02:31:46;4.77;;;2.83;;
75823;SDS011;64457;51.976;9.834;2024-02-14T02:34:14;5.30;;;2.97;;
75823;SDS011;64457;51.976;9.834;2024-02-14T02:36:41;6.23;;;3.30;;
75823;SDS011;64457;51.976;9.834;2024-02-14T02:39:11;3.90;;;2.93;;
75823;SDS011;64457;51.976;9.834;2024-02-14T02:41:40;4.10;;;3.10;;
75823;SDS011;64457;51.976;9.834;2024-02-14T02:44:08;5.90;;;2.87;;
75823;SDS011;64457;51.976;9.834;2024-02-14T02:46:35;6.57;;;3.50;;
75823;SDS011;64457;51.976;9.834;2024-02-14T02:49:01;4.23;;;2.80;;
75823;SDS011;64457;51.976;9.834;2024-02-14T02:51:29;5.23;;;3.27;;
75823;SDS011;64457;51.976;9.834;2024-02-14T02:53:56;5.50;;;2.77;;
75823;SDS011;64457;51.976;9.834;2024-02-14T02:56:23;4.20;;;3.10;;
75823;SDS011;64457;51.976;9.834;2024-02-14T02:58:53;7.53;;;3.23;;
75823;SDS011;64457;51.976;9.834;2024-02-14T03:01:21;2.80;;;2.40;;
75823;SDS011;64457;51.976;9.834;2024-02-14T03:03:50;3.97;;;2.40;;
75823;SDS011;64457;51.976;9.834;2024-02-14T03:06:17;5.60;;;3.00;;
75823;SDS011;64457;51.976;9.834;2024-02-14T03:08:45;7.27;;;3.07;;
75823;SDS011;64457;51.976;9.834;2024-02-14T03:11:15;5.47;;;2.93;;
75823;SDS011;64457;51.976;9.834;2024-02-14T03:13:42;5.40;;;3.20;;
75823;SDS011;64457;51.976;9.834;2024-02-14T03:16:11;5.40;;;3.33;;
75823;SDS011;64457;51.976;9.834;2024-02-14T03:18:40;4.47;;;2.70;;
75823;SDS011;64457;51.976;9.834;2024-02-14T03:21:07;9.40;;;3.00;;
75823;SDS011;64457;51.976;9.834;2024-02-14T03:23:34;5.10;;;2.80;;
75823;SDS011;64457;51.976;9.834;2024-02-14T03:26:02;4.70;;;3.13;;
75823;SDS011;64457;51.976;9.834;2024-02-14T03:28:33;4.63;;;2.90;;
75823;SDS011;64457;51.976;9.834;2024-02-14T03:31:00;3.50;;;2.40;;
75823;SDS011;64457;51.976;9.834;2024-02-14T03:33:29;2.90;;;2.60;;
75823;SDS011;64457;51.976;9.834;2024-02-14T03:35:57;5.70;;;3.00;;
75823;SDS011;64457;51.976;9.834;2024-02-14T03:38:25;6.40;;;3.23;;
75823;SDS011;64457;51.976;9.834;2024-02-14T03:40:53;3.63;;;2.80;;
75823;SDS011;64457;51.976;9.834;2024-02-14T03:43:20;3.60;;;3.17;;
75823;SDS011;64457;51.976;9.834;2024-02-14T03:45:49;3.87;;;2.90;;
75823;SDS011;64457;51.976;9.834;2024-02-14T03:48:17;5.00;;;2.33;;
75823;SDS011;64457;51.976;9.834;2024-02-14T03:50:45;5.00;;;2.60;;
75823;SDS011;64457;51.976;9.834;2024-02-14T03:53:13;4.87;;;3.07;;
75823;SDS011;64457;51.976;9.834;2024-02-14T03:55:41;3.80;;;2.70;;
75823;SDS011;64457;51.976;9.834;2024-02-14T03:58:08;4.30;;;2.90;;
75823;SDS011;64457;51.976;9.834;2024-02-14T04:00:36;4.60;;;2.40;;
75823;SDS011;64457;51.976;9.834;2024-02-14T04:03:03;4.30;;;2.87;;
75823;SDS011;64457;51.976;9.834;2024-02-14T04:05:32;5.47;;;2.90;;
75823;SDS011;64457;51.976;9.834;2024-02-14T04:08:01;6.43;;;2.83;;
75823;SDS011;64457;51.976;9.834;2024-02-14T04:10:28;5.63;;;2.37;;
75823;SDS011;64457;51.976;9.834;2024-02-14T04:12:56;4.43;;;2.73;;
75823;SDS011;64457;51.976;9.834;2024-02-14T04:15:23;11.27;;;3.07;;
75823;SDS011;64457;51.976;9.834;2024-02-14T04:17:50;6.00;;;3.00;;
75823;SDS011;64457;51.976;9.834;2024-02-14T04:20:18;4.43;;;2.60;;
75823;SDS011;64457;51.976;9.834;2024-02-14T04:22:46;3.80;;;2.57;;
75823;SDS011;64457;51.976;9.834;2024-02-14T04:25:14;3.73;;;2.43;;
75823;SDS011;64457;51.976;9.834;2024-02-14T04:27:43;5.90;;;2.80;;
75823;SDS011;64457;51.976;9.834;2024-02-14T04:30:11;10.23;;;2.60;;
75823;SDS011;64457;51.976;9.834;2024-02-14T04:32:38;7.83;;;3.20;;
75823;SDS011;64457;51.976;9.834;2024-02-14T04:35:06;5.33;;;2.60;;
75823;SDS011;64457;51.976;9.834;2024-02-14T04:37:34;10.80;;;2.73;;
75823;SDS011;64457;51.976;9.834;2024-02-14T04:40:01;4.73;;;3.00;;
75823;SDS011;64457;51.976;9.834;2024-02-14T04:42:32;4.77;;;2.23;;
75823;SDS011;64457;51.976;9.834;2024-02-14T04:44:59;5.77;;;2.87;;
75823;SDS011;64457;51.976;9.834;2024-02-14T04:47:28;4.40;;;2.63;;
75823;SDS011;64457;51.976;9.834;2024-02-14T04:49:56;2.80;;;2.40;;
75823;SDS011;64457;51.976;9.834;2024-02-14T04:52:23;3.80;;;2.10;;
75823;SDS011;64457;51.976;9.834;2024-02-14T04:54:51;3.27;;;2.40;;
75823;SDS011;64457;51.976;9.834;2024-02-14T04:57:18;2.33;;;2.00;;
75823;SDS011;64457;51.976;9.834;2024-02-14T04:59:47;5.00;;;2.50;;
75823;SDS011;64457;51.976;9.834;2024-02-14T05:02:14;6.10;;;2.50;;
75823;SDS011;64457;51.976;9.834;2024-02-14T05:04:41;2.70;;;2.33;;
75823;SDS011;64457;51.976;9.834;2024-02-14T05:07:09;3.57;;;2.40;;
75823;SDS011;64457;51.976;9.834;2024-02-14T05:09:36;8.57;;;2.90;;
75823;SDS011;64457;51.976;9.834;2024-02-14T05:12:04;4.30;;;2.50;;
75823;SDS011;64457;51.976;9.834;2024-02-14T05:14:37;4.23;;;2.53;;
75823;SDS011;64457;51.976;9.834;2024-02-14T05:17:08;4.17;;;2.47;;
75823;SDS011;64457;51.976;9.834;2024-02-14T05:19:35;3.37;;;2.43;;
75823;SDS011;64457;51.976;9.834;2024-02-14T05:22:03;7.03;;;2.97;;
75823;SDS011;64457;51.976;9.834;2024-02-14T05:24:30;2.57;;;2.10;;
75823;SDS011;64457;51.976;9.834;2024-02-14T05:26:58;9.00;;;2.70;;
75823;SDS011;64457;51.976;9.834;2024-02-14T05:29:25;5.07;;;2.70;;
75823;SDS011;64457;51.976;9.834;2024-02-14T05:31:55;6.67;;;2.57;;
75823;SDS011;64457;51.976;9.834;2024-02-14T05:34:24;8.10;;;2.60;;
75823;SDS011;64457;51.976;9.834;2024-02-14T05:36:52;4.03;;;2.67;;
75823;SDS011;64457;51.976;9.834;2024-02-14T05:39:19;4.10;;;2.83;;
75823;SDS011;64457;51.976;9.834;2024-02-14T05:41:47;3.80;;;2.40;;
75823;SDS011;64457;51.976;9.834;2024-02-14T05:44:15;5.17;;;2.40;;
75823;SDS011;64457;51.976;9.834;2024-02-14T05:46:43;4.03;;;2.37;;
75823;SDS011;64457;51.976;9.834;2024-02-14T05:49:11;4.47;;;2.60;;
75823;SDS011;64457;51.976;9.834;2024-02-14T05:51:40;3.73;;;1.97;;
75823;SDS011;64457;51.976;9.834;2024-02-14T05:54:07;2.73;;;2.10;;
75823;SDS011;64457;51.976;9.834;2024-02-14T05:56:35;4.00;;;2.27;;
75823;SDS011;64457;51.976;9.834;2024-02-14T05:59:02;4.23;;;2.70;;
75823;SDS011;64457;51.976;9.834;2024-02-14T06:01:31;4.43;;;2.57;;
75823;SDS011;64457;51.976;9.834;2024-02-14T06:03:59;3.20;;;2.60;;
75823;SDS011;64457;51.976;9.834;2024-02-14T06:06:26;3.97;;;2.40;;
75823;SDS011;64457;51.976;9.834;2024-02-14T06:08:55;4.60;;;2.73;;
75823;SDS011;64457;51.976;9.834;2024-02-14T06:11:23;7.03;;;2.70;;
75823;SDS011;64457;51.976;9.834;2024-02-14T06:13:50;5.20;;;2.90;;
75823;SDS011;64457;51.976;9.834;2024-02-14T06:16:18;2.83;;;2.30;;
75823;SDS011;64457;51.976;9.834;2024-02-14T06:18:47;5.07;;;2.90;;
75823;SDS011;64457;51.976;9.834;2024-02-14T06:21:14;6.80;;;2.50;;
75823;SDS011;64457;51.976;9.834;2024-02-14T06:23:42;3.37;;;2.50;;
75823;SDS011;64457;51.976;9.834;2024-02-14T06:26:13;5.63;;;3.07;;
75823;SDS011;64457;51.976;9.834;2024-02-14T06:28:40;5.03;;;2.20;;
75823;SDS011;64457;51.976;9.834;2024-02-14T06:31:08;4.37;;;2.80;;
75823;SDS011;64457;51.976;9.834;2024-02-14T06:33:36;3.90;;;2.80;;
75823;SDS011;64457;51.976;9.834;2024-02-14T06:36:03;5.47;;;2.60;;
75823;SDS011;64457;51.976;9.834;2024-02-14T06:38:31;5.67;;;2.50;;
75823;SDS011;64457;51.976;9.834;2024-02-14T06:40:59;4.30;;;2.70;;
75823;SDS011;64457;51.976;9.834;2024-02-14T06:43:28;3.30;;;2.63;;
75823;SDS011;64457;51.976;9.834;2024-02-14T06:45:55;3.70;;;2.70;;
75823;SDS011;64457;51.976;9.834;2024-02-14T06:48:23;3.73;;;2.60;;
75823;SDS011;64457;51.976;9.834;2024-02-14T06:50:51;5.53;;;3.00;;
75823;SDS011;64457;51.976;9.834;2024-02-14T06:53:18;6.07;;;3.43;;
75823;SDS011;64457;51.976;9.834;2024-02-14T06:55:45;5.43;;;2.87;;
75823;SDS011;64457;51.976;9.834;2024-02-14T06:58:13;3.00;;;2.67;;
75823;SDS011;64457;51.976;9.834;2024-02-14T07:00:42;5.93;;;3.53;;
75823;SDS011;64457;51.976;9.834;2024-02-14T07:03:09;9.97;;;3.43;;
75823;SDS011;64457;51.976;9.834;2024-02-14T07:05:37;6.20;;;2.90;;
75823;SDS011;64457;51.976;9.834;2024-02-14T07:08:05;5.83;;;3.03;;
75823;SDS011;64457;51.976;9.834;2024-02-14T07:10:32;5.50;;;3.07;;
75823;SDS011;64457;51.976;9.834;2024-02-14T07:13:00;6.13;;;3.30;;
75823;SDS011;64457;51.976;9.834;2024-02-14T07:15:28;5.77;;;3.13;;
75823;SDS011;64457;51.976;9.834;2024-02-14T07:17:57;4.60;;;3.10;;
75823;SDS011;64457;51.976;9.834;2024-02-14T07:20:24;3.30;;;2.90;;
75823;SDS011;64457;51.976;9.834;2024-02-14T07:22:52;5.33;;;2.90;;
75823;SDS011;64457;51.976;9.834;2024-02-14T07:25:21;4.23;;;3.00;;
75823;SDS011;64457;51.976;9.834;2024-02-14T07:27:49;5.73;;;3.37;;
75823;SDS011;64457;51.976;9.834;2024-02-14T07:30:16;3.80;;;2.83;;
75823;SDS011;64457;51.976;9.834;2024-02-14T07:32:44;8.20;;;4.03;;
75823;SDS011;64457;51.976;9.834;2024-02-14T07:35:13;5.60;;;3.03;;
75823;SDS011;64457;51.976;9.834;2024-02-14T07:37:42;4.50;;;3.57;;
75823;SDS011;64457;51.976;9.834;2024-02-14T07:40:10;5.50;;;3.00;;
75823;SDS011;64457;51.976;9.834;2024-02-14T07:42:38;4.10;;;3.07;;
75823;SDS011;64457;51.976;9.834;2024-02-14T07:45:06;6.57;;;3.00;;
75823;SDS011;64457;51.976;9.834;2024-02-14T07:47:34;6.60;;;3.53;;
75823;SDS011;64457;51.976;9.834;2024-02-14T07:50:01;4.70;;;2.80;;
75823;SDS011;64457;51.976;9.834;2024-02-14T07:52:32;6.27;;;3.37;;
75823;SDS011;64457;51.976;9.834;2024-02-14T07:54:59;6.93;;;3.43;;
75823;SDS011;64457;51.976;9.834;2024-02-14T07:57:27;4.87;;;2.97;;
75823;SDS011;64457;51.976;9.834;2024-02-14T07:59:54;4.70;;;2.90;;
75823;SDS011;64457;51.976;9.834;2024-02-14T08:02:22;4.00;;;2.97;;
75823;SDS011;64457;51.976;9.834;2024-02-14T08:04:52;4.80;;;2.80;;
75823;SDS011;64457;51.976;9.834;2024-02-14T08:07:22;5.00;;;2.83;;
75823;SDS011;64457;51.976;9.834;2024-02-14T08:09:51;6.10;;;2.80;;
75823;SDS011;64457;51.976;9.834;2024-02-14T08:12:19;3.73;;;2.57;;
75823;SDS011;64457;51.976;9.834;2024-02-14T08:14:47;3.07;;;2.53;;
75823;SDS011;64457;51.976;9.834;2024-02-14T08:17:14;4.80;;;2.93;;
75823;SDS011;64457;51.976;9.834;2024-02-14T08:19:42;3.67;;;2.97;;
75823;SDS011;64457;51.976;9.834;2024-02-14T08:22:09;4.87;;;3.00;;
75823;SDS011;64457;51.976;9.834;2024-02-14T08:24:37;4.73;;;2.87;;
75823;SDS011;64457;51.976;9.834;2024-02-14T08:27:07;3.50;;;2.80;;
75823;SDS011;64457;51.976;9.834;2024-02-14T08:29:34;5.00;;;2.73;;
75823;SDS011;64457;51.976;9.834;2024-02-14T08:32:02;4.70;;;2.83;;
75823;SDS011;64457;51.976;9.834;2024-02-14T08:34:31;3.20;;;2.87;;
75823;SDS011;64457;51.976;9.834;2024-02-14T08:36:58;6.40;;;3.03;;
75823;SDS011;64457;51.976;9.834;2024-02-14T08:39:26;3.03;;;2.60;;
75823;SDS011;64457;51.976;9.834;2024-02-14T08:41:54;3.53;;;2.63;;
75823;SDS011;64457;51.976;9.834;2024-02-14T08:44:23;10.90;;;4.43;;
75823;SDS011;64457;51.976;9.834;2024-02-14T08:46:51;3.53;;;2.60;;
75823;SDS011;64457;51.976;9.834;2024-02-14T08:49:19;3.13;;;2.63;;
75823;SDS011;64457;51.976;9.834;2024-02-14T08:51:46;4.30;;;2.70;;
75823;SDS011;64457;51.976;9.834;2024-02-14T08:54:14;4.77;;;3.20;;
75823;SDS011;64457;51.976;9.834;2024-02-14T08:56:41;5.67;;;2.87;;
75823;SDS011;64457;51.976;9.834;2024-02-14T08:59:09;4.13;;;3.00;;
75823;SDS011;64457;51.976;9.834;2024-02-14T09:01:39;6.73;;;3.10;;
75823;SDS011;64457;51.976;9.834;2024-02-14T09:04:07;11.73;;;3.23;;
75823;SDS011;64457;51.976;9.834;2024-02-14T09:06:34;4.00;;;2.73;;
75823;SDS011;64457;51.976;9.834;2024-02-14T09:09:04;5.10;;;3.00;;
75823;SDS011;64457;51.976;9.834;2024-02-14T09:11:32;6.80;;;3.00;;
75823;SDS011;64457;51.976;9.834;2024-02-14T09:13:59;8.13;;;2.90;;
75823;SDS011;64457;51.976;9.834;2024-02-14T09:16:31;3.40;;;2.90;;
75823;SDS011;64457;51.976;9.834;2024-02-14T09:19:01;5.93;;;2.70;;
75823;SDS011;64457;51.976;9.834;2024-02-14T09:21:28;3.47;;;2.67;;
75823;SDS011;64457;51.976;9.834;2024-02-14T09:23:56;3.53;;;2.63;;
75823;SDS011;64457;51.976;9.834;2024-02-14T09:26:23;11.53;;;3.10;;
75823;SDS011;64457;51.976;9.834;2024-02-14T09:28:51;6.07;;;2.70;;
75823;SDS011;64457;51.976;9.834;2024-02-14T09:31:19;3.30;;;2.47;;
75823;SDS011;64457;51.976;9.834;2024-02-14T09:33:47;3.10;;;2.30;;
75823;SDS011;64457;51.976;9.834;2024-02-14T09:36:16;3.67;;;2.80;;
75823;SDS011;64457;51.976;9.834;2024-02-14T09:38:44;4.40;;;2.43;;
75823;SDS011;64457;51.976;9.834;2024-02-14T09:41:14;4.67;;;2.33;;
75823;SDS011;64457;51.976;9.834;2024-02-14T09:43:48;4.00;;;2.10;;
75823;SDS011;64457;51.976;9.834;2024-02-14T09:46:16;3.43;;;2.30;;
75823;SDS011;64457;51.976;9.834;2024-02-14T09:48:45;5.10;;;2.50;;
75823;SDS011;64457;51.976;9.834;2024-02-14T09:51:13;4.47;;;2.30;;
75823;SDS011;64457;51.976;9.834;2024-02-14T09:53:42;3.23;;;2.20;;
75823;SDS011;64457;51.976;9.834;2024-02-14T09:56:10;2.97;;;2.00;;
75823;SDS011;64457;51.976;9.834;2024-02-14T09:58:39;4.90;;;2.13;;
75823;SDS011;64457;51.976;9.834;2024-02-14T10:01:07;4.87;;;2.03;;
75823;SDS011;64457;51.976;9.834;2024-02-14T10:03:35;4.57;;;1.80;;
75823;SDS011;64457;51.976;9.834;2024-02-14T10:06:02;2.50;;;1.70;;
75823;SDS011;64457;51.976;9.834;2024-02-14T10:08:30;3.63;;;2.30;;
75823;SDS011;64457;51.976;9.834;2024-02-14T10:11:00;3.37;;;1.90;;
75823;SDS011;64457;51.976;9.834;2024-02-14T10:13:29;3.53;;;1.63;;
75823;SDS011;64457;51.976;9.834;2024-02-14T10:15:57;3.70;;;1.80;;
75823;SDS011;64457;51.976;9.834;2024-02-14T10:18:25;2.87;;;1.90;;
75823;SDS011;64457;51.976;9.834;2024-02-14T10:20:53;3.23;;;2.00;;
75823;SDS011;64457;51.976;9.834;2024-02-14T10:23:22;2.40;;;1.70;;
75823;SDS011;64457;51.976;9.834;2024-02-14T10:25:50;4.53;;;2.13;;
75823;SDS011;64457;51.976;9.834;2024-02-14T10:28:22;6.20;;;2.10;;
75823;SDS011;64457;51.976;9.834;2024-02-14T10:30:50;3.10;;;1.83;;
75823;SDS011;64457;51.976;9.834;2024-02-14T10:33:18;3.37;;;1.70;;
75823;SDS011;64457;51.976;9.834;2024-02-14T10:35:46;4.40;;;1.90;;
75823;SDS011;64457;51.976;9.834;2024-02-14T10:38:16;7.63;;;2.20;;
75823;SDS011;64457;51.976;9.834;2024-02-14T10:40:46;4.47;;;2.40;;
75823;SDS011;64457;51.976;9.834;2024-02-14T10:43:14;3.87;;;1.70;;
75823;SDS011;64457;51.976;9.834;2024-02-14T10:45:43;6.40;;;1.83;;
75823;SDS011;64457;51.976;9.834;2024-02-14T10:48:11;2.73;;;1.90;;
75823;SDS011;64457;51.976;9.834;2024-02-14T10:50:40;2.83;;;1.90;;
75823;SDS011;64457;51.976;9.834;2024-02-14T10:53:10;3.67;;;2.03;;
75823;SDS011;64457;51.976;9.834;2024-02-14T10:55:41;2.80;;;1.60;;
75823;SDS011;64457;51.976;9.834;2024-02-14T10:58:12;4.20;;;2.20;;
75823;SDS011;64457;51.976;9.834;2024-02-14T11:00:44;2.53;;;1.70;;
75823;SDS011;64457;51.976;9.834;2024-02-14T11:03:13;3.63;;;1.97;;
75823;SDS011;64457;51.976;9.834;2024-02-14T11:05:44;1.70;;;1.30;;
75823;SDS011;64457;51.976;9.834;2024-02-14T11:08:13;2.03;;;1.20;;
75823;SDS011;64457;51.976;9.834;2024-02-14T11:10:41;2.00;;;1.40;;
75823;SDS011;64457;51.976;9.834;2024-02-14T11:13:12;2.20;;;1.43;;
75823;SDS011;64457;51.976;9.834;2024-02-14T11:15:40;3.63;;;1.73;;
75823;SDS011;64457;51.976;9.834;2024-02-14T11:18:13;2.60;;;1.47;;
75823;SDS011;64457;51.976;9.834;2024-02-14T11:20:40;2.60;;;1.40;;
75823;SDS011;64457;51.976;9.834;2024-02-14T11:23:11;2.07;;;1.30;;
75823;SDS011;64457;51.976;9.834;2024-02-14T11:25:43;1.80;;;1.20;;
75823;SDS011;64457;51.976;9.834;2024-02-14T11:28:14;1.70;;;1.30;;
75823;SDS011;64457;51.976;9.834;2024-02-14T11:30:42;2.00;;;1.20;;
75823;SDS011;64457;51.976;9.834;2024-02-14T11:33:16;1.70;;;1.37;;
75823;SDS011;64457;51.976;9.834;2024-02-14T11:35:45;1.90;;;1.10;;
75823;SDS011;64457;51.976;9.834;2024-02-14T11:38:15;3.07;;;1.60;;
75823;SDS011;64457;51.976;9.834;2024-02-14T11:40:43;1.90;;;1.30;;
75823;SDS011;64457;51.976;9.834;2024-02-14T11:43:11;1.60;;;1.40;;
75823;SDS011;64457;51.976;9.834;2024-02-14T11:45:41;2.03;;;1.50;;
75823;SDS011;64457;51.976;9.834;2024-02-14T11:48:12;3.37;;;1.40;;
75823;SDS011;64457;51.976;9.834;2024-02-14T11:50:41;3.53;;;1.80;;
75823;SDS011;64457;51.976;9.834;2024-02-14T11:53:09;2.17;;;1.70;;
75823;SDS011;64457;51.976;9.834;2024-02-14T11:55:39;1.83;;;1.37;;
75823;SDS011;64457;51.976;9.834;2024-02-14T11:58:07;1.87;;;1.57;;
75823;SDS011;64457;51.976;9.834;2024-02-14T12:00:36;2.90;;;1.43;;
75823;SDS011;64457;51.976;9.834;2024-02-14T12:03:06;3.20;;;1.50;;
75823;SDS011;64457;51.976;9.834;2024-02-14T12:05:38;2.43;;;1.50;;
75823;SDS011;64457;51.976;9.834;2024-02-14T12:08:06;1.93;;;1.50;;
75823;SDS011;64457;51.976;9.834;2024-02-14T12:10:35;5.90;;;1.80;;
75823;SDS011;64457;51.976;9.834;2024-02-14T12:13:07;4.13;;;1.67;;
75823;SDS011;64457;51.976;9.834;2024-02-14T12:15:37;2.23;;;1.47;;
75823;SDS011;64457;51.976;9.834;2024-02-14T12:18:06;2.03;;;1.50;;
75823;SDS011;64457;51.976;9.834;2024-02-14T12:20:35;2.77;;;1.60;;
75823;SDS011;64457;51.976;9.834;2024-02-14T12:23:05;1.60;;;1.40;;
75823;SDS011;64457;51.976;9.834;2024-02-14T12:25:32;3.50;;;2.20;;
75823;SDS011;64457;51.976;9.834;2024-02-14T12:28:01;4.33;;;1.97;;
75823;SDS011;64457;51.976;9.834;2024-02-14T12:30:41;4.00;;;2.13;;
75823;SDS011;64457;51.976;9.834;2024-02-14T12:33:10;5.87;;;2.53;;
75823;SDS011;64457;51.976;9.834;2024-02-14T12:35:44;2.30;;;1.60;;
75823;SDS011;64457;51.976;9.834;2024-02-14T12:38:13;3.20;;;1.70;;
75823;SDS011;64457;51.976;9.834;2024-02-14T12:40:44;2.13;;;1.70;;
75823;SDS011;64457;51.976;9.834;2024-02-14T12:43:13;2.63;;;1.80;;
75823;SDS011;64457;51.976;9.834;2024-02-14T12:45:41;2.47;;;1.90;;
75823;SDS011;64457;51.976;9.834;2024-02-14T12:48:10;2.97;;;1.90;;
75823;SDS011;64457;51.976;9.834;2024-02-14T12:50:40;1.90;;;1.40;;
75823;SDS011;64457;51.976;9.834;2024-02-14T12:53:15;2.87;;;1.50;;
75823;SDS011;64457;51.976;9.834;2024-02-14T12:55:42;2.57;;;1.60;;
75823;SDS011;64457;51.976;9.834;2024-02-14T12:58:10;3.60;;;2.00;;
75823;SDS011;64457;51.976;9.834;2024-02-14T13:00:38;2.43;;;1.50;;
75823;SDS011;64457;51.976;9.834;2024-02-14T13:03:05;3.03;;;1.60;;
75823;SDS011;64457;51.976;9.834;2024-02-14T13:05:33;2.40;;;1.43;;
75823;SDS011;64457;51.976;9.834;2024-02-14T13:08:01;4.60;;;1.60;;
75823;SDS011;64457;51.976;9.834;2024-02-14T13:10:30;5.43;;;1.80;;
75823;SDS011;64457;51.976;9.834;2024-02-14T13:12:58;1.83;;;1.30;;
75823;SDS011;64457;51.976;9.834;2024-02-14T13:15:26;2.33;;;1.47;;
75823;SDS011;64457;51.976;9.834;2024-02-14T13:17:53;2.23;;;1.53;;
75823;SDS011;64457;51.976;9.834;2024-02-14T13:20:25;3.17;;;1.60;;
75823;SDS011;64457;51.976;9.834;2024-02-14T13:22:53;4.23;;;1.83;;
75823;SDS011;64457;51.976;9.834;2024-02-14T13:25:21;2.30;;;1.50;;
75823;SDS011;64457;51.976;9.834;2024-02-14T13:27:50;3.83;;;1.70;;
75823;SDS011;64457;51.976;9.834;2024-02-14T13:30:17;2.20;;;1.63;;
75823;SDS011;64457;51.976;9.834;2024-02-14T13:32:45;2.00;;;1.50;;
75823;SDS011;64457;51.976;9.834;2024-02-14T13:35:13;4.93;;;1.30;;
75823;SDS011;64457;51.976;9.834;2024-02-14T13:37:41;3.60;;;1.57;;
75823;SDS011;64457;51.976;9.834;2024-02-14T13:40:10;2.37;;;1.70;;
75823;SDS011;64457;51.976;9.834;2024-02-14T13:42:38;2.70;;;1.40;;
75823;SDS011;64457;51.976;9.834;2024-02-14T13:45:07;4.70;;;1.63;;
75823;SDS011;64457;51.976;9.834;2024-02-14T13:47:36;2.33;;;1.43;;
75823;SDS011;64457;51.976;9.834;2024-02-14T13:50:05;4.60;;;1.57;;
75823;SDS011;64457;51.976;9.834;2024-02-14T13:52:34;2.00;;;1.30;;
75823;SDS011;64457;51.976;9.834;2024-02-14T13:55:02;2.30;;;1.37;;
75823;SDS011;64457;51.976;9.834;2024-02-14T13:57:33;2.07;;;1.40;;
75823;SDS011;64457;51.976;9.834;2024-02-14T14:00:03;2.10;;;1.60;;
75823;SDS011;64457;51.976;9.834;2024-02-14T14:02:37;1.80;;;1.23;;
75823;SDS011;64457;51.976;9.834;2024-02-14T14:05:08;4.20;;;1.40;;
75823;SDS011;64457;51.976;9.834;2024-02-14T14:07:37;3.20;;;1.80;;
75823;SDS011;64457;51.976;9.834;2024-02-14T14:10:06;2.53;;;1.93;;
75823;SDS011;64457;51.976;9.834;2024-02-14T14:12:36;1.77;;;1.20;;
75823;SDS011;64457;51.976;9.834;2024-02-14T14:15:05;2.53;;;1.30;;
75823;SDS011;64457;51.976;9.834;2024-02-14T14:17:34;2.10;;;1.33;;
75823;SDS011;64457;51.976;9.834;2024-02-14T14:20:04;4.93;;;1.50;;
75823;SDS011;64457;51.976;9.834;2024-02-14T14:22:33;2.73;;;1.30;;
75823;SDS011;64457;51.976;9.834;2024-02-14T14:25:02;2.10;;;1.10;;
75823;SDS011;64457;51.976;9.834;2024-02-14T14:27:33;1.70;;;1.07;;
75823;SDS011;64457;51.976;9.834;2024-02-14T14:30:01;1.60;;;1.10;;
75823;SDS011;64457;51.976;9.834;2024-02-14T14:32:29;1.73;;;1.00;;
75823;SDS011;64457;51.976;9.834;2024-02-14T14:34:57;1.57;;;0.90;;
75823;SDS011;64457;51.976;9.834;2024-02-14T14:37:26;2.67;;;1.20;;
75823;SDS011;64457;51.976;9.834;2024-02-14T14:39:53;1.30;;;1.10;;
75823;SDS011;64457;51.976;9.834;2024-02-14T14:42:21;1.50;;;1.07;;
75823;SDS011;64457;51.976;9.834;2024-02-14T14:44:49;1.87;;;1.20;;
75823;SDS011;64457;51.976;9.834;2024-02-14T14:47:20;4.13;;;1.30;;
75823;SDS011;64457;51.976;9.834;2024-02-14T14:49:48;2.40;;;1.10;;
75823;SDS011;64457;51.976;9.834;2024-02-14T14:52:15;1.33;;;0.90;;
75823;SDS011;64457;51.976;9.834;2024-02-14T14:54:46;1.40;;;1.00;;